createdAt,value
2022-10-16T00:02:14.035Z,98713.86
2022-10-16T00:12:21.365Z,98716.39
2022-10-16T00:22:28.821Z,98718.38
2022-10-16T00:32:34.852Z,98714.38
2022-10-16T00:42:42.317Z,98712.39
2022-10-16T00:52:52.148Z,98726.31
2022-10-16T01:03:02.167Z,98730.73
2022-10-16T01:13:13.251Z,98729.33
2022-10-16T01:23:30.618Z,98735.48
2022-10-16T01:33:42.601Z,98730.40
2022-10-16T01:43:47.766Z,98731.58
2022-10-16T01:53:59.106Z,98732.13
2022-10-16T02:04:12.443Z,98733.34
2022-10-16T02:14:19.962Z,98736.67
2022-10-16T02:24:30.677Z,98737.88
2022-10-16T02:34:39.109Z,98743.04
2022-10-16T02:44:46.820Z,98747.63
2022-10-16T02:54:53.572Z,98753.30
2022-10-16T03:05:00.765Z,98764.64
2022-10-16T03:15:08.170Z,98765.71
2022-10-16T03:25:15.257Z,98764.88
2022-10-16T03:35:22.354Z,98775.82
2022-10-16T03:45:29.572Z,98782.48
2022-10-16T03:55:36.830Z,98789.65
2022-10-16T04:05:44.172Z,98796.57
2022-10-16T04:15:51.357Z,98797.75
2022-10-16T04:25:58.657Z,98792.77
2022-10-16T04:36:07.132Z,98798.70
2022-10-16T04:46:14.263Z,98796.77
2022-10-16T04:56:21.957Z,98793.23
2022-10-16T05:06:29.242Z,98783.95
2022-10-16T05:16:36.361Z,98794.46
2022-10-16T05:26:43.767Z,98805.00
2022-10-16T05:36:51.691Z,98815.09
2022-10-16T05:46:58.710Z,98822.42
2022-10-16T05:57:06.055Z,98835.71
2022-10-16T06:07:11.458Z,98845.07
2022-10-16T06:17:18.964Z,98860.31
2022-10-16T06:27:26.241Z,98861.41
2022-10-16T06:37:33.514Z,98867.61
2022-10-16T06:47:40.871Z,98867.75
2022-10-16T06:57:49.947Z,98884.08
2022-10-16T07:07:57.213Z,98904.41
2022-10-16T07:18:04.432Z,98907.98
2022-10-16T07:28:11.993Z,98915.23
2022-10-16T07:38:19.626Z,98922.85
2022-10-16T07:48:29.332Z,98922.30
2022-10-16T07:58:37.121Z,98930.79
2022-10-16T08:08:44.687Z,98937.10
2022-10-16T08:18:52.914Z,98940.70
2022-10-16T08:29:00.385Z,98941.47
2022-10-16T08:39:06.852Z,98949.27
2022-10-16T08:49:14.313Z,98960.13
2022-10-16T08:59:23.071Z,98966.92
2022-10-16T09:09:42.012Z,98966.44
2022-10-16T09:19:50.348Z,98978.96
2022-10-16T09:29:58.938Z,98980.33
2022-10-16T09:40:07.813Z,98989.87
2022-10-16T09:50:21.860Z,98998.60
2022-10-16T10:00:29.181Z,98990.20
2022-10-16T10:10:42.728Z,98990.66
2022-10-16T10:20:59.537Z,98996.39
2022-10-16T10:31:04.667Z,98984.56
2022-10-16T10:41:29.235Z,98977.05
2022-10-16T10:51:37.946Z,98987.19
2022-10-16T11:01:51.166Z,98985.04
2022-10-16T11:12:03.286Z,99001.44
2022-10-16T11:22:08.998Z,99005.52
2022-10-16T11:32:13.852Z,98996.14
2022-10-16T11:42:22.734Z,98990.66
2022-10-16T11:52:27.469Z,99003.34
2022-10-16T12:02:38.566Z,99002.25
2022-10-16T12:12:47.562Z,99011.41
2022-10-16T12:22:58.013Z,99008.74
2022-10-16T12:33:02.807Z,99007.49
2022-10-16T12:43:29.904Z,99012.63
2022-10-16T12:53:36.743Z,99016.83
2022-10-16T13:04:02.747Z,99021.30
2022-10-16T13:14:21.338Z,99020.16
2022-10-16T13:24:32.541Z,99018.08
2022-10-16T13:34:45.917Z,99015.86
2022-10-16T13:44:55.158Z,99016.96
2022-10-16T13:55:02.825Z,99022.90
2022-10-16T14:05:14.546Z,99040.04
2022-10-16T14:15:21.436Z,99060.48
2022-10-16T14:25:29.983Z,99055.89
2022-10-16T14:35:37.904Z,99060.55
2022-10-16T14:45:45.089Z,99072.04
2022-10-16T15:05:39.043Z,99079.52
2022-10-16T15:15:45.834Z,99091.23
2022-10-16T15:25:54.035Z,99090.08
2022-10-16T15:36:01.154Z,99092.66
2022-10-16T15:56:20.224Z,99117.71
2022-10-16T16:16:38.082Z,99138.72
2022-10-16T16:26:45.066Z,99141.75
2022-10-16T16:36:52.124Z,99152.89
2022-10-16T16:46:59.244Z,99173.92
2022-10-16T16:57:06.775Z,99196.65
2022-10-16T17:07:12.960Z,99215.73
2022-10-16T17:17:20.298Z,99221.52
2022-10-16T17:27:27.562Z,99228.64
2022-10-16T17:37:34.965Z,99239.30
2022-10-16T17:47:42.058Z,99252.52
2022-10-16T17:57:49.201Z,99253.83
2022-10-16T18:07:55.506Z,99262.99
2022-10-16T18:28:09.115Z,99282.55
2022-10-16T18:38:14.058Z,99298.77
2022-10-16T18:48:21.238Z,99305.11
2022-10-16T18:58:28.664Z,99318.27
2022-10-16T19:08:39.084Z,99322.56
2022-10-16T19:18:46.267Z,99341.24
2022-10-16T19:28:53.642Z,99353.75
2022-10-16T19:39:03.041Z,99364.43
2022-10-16T19:49:12.290Z,99374.83
2022-10-16T19:59:20.505Z,99381.37
2022-10-16T20:09:27.794Z,99385.68
2022-10-16T20:19:34.457Z,99391.33
2022-10-16T20:29:40.882Z,99398.92
2022-10-16T20:39:49.125Z,99416.10
2022-10-16T20:49:55.945Z,99431.68
2022-10-16T21:00:03.256Z,99436.52
2022-10-16T21:10:10.239Z,99448.58
2022-10-16T21:20:17.631Z,99446.86
2022-10-16T21:30:24.694Z,99456.83
2022-10-16T21:40:31.692Z,99461.14
2022-10-16T21:50:38.732Z,99477.83
2022-10-16T22:00:45.900Z,99489.19
2022-10-16T22:10:53.023Z,99491.01
2022-10-16T22:20:59.879Z,99497.73
2022-10-16T22:31:06.719Z,99488.77
2022-10-16T22:41:15.697Z,99491.63
2022-10-16T22:51:23.722Z,99499.94
2022-10-16T23:01:33.289Z,99508.02
2022-10-16T23:11:40.490Z,99507.89
2022-10-16T23:21:47.704Z,99524.39
2022-10-16T23:31:56.819Z,99527.43
2022-10-16T23:42:02.157Z,99541.67
2022-10-16T23:52:08.070Z,99547.27
